Pagina principale
METAR-TAF:

METAR-TAF

Aeroporti :

Saint-Etienne, Francia

latitudine: 45-32N, longitudine: 004-18E, altezza: 404 m

Osservazione

Il bollettino è stato emesso 38 minuti fa, alle 00:30 UTC
Vento 2 kt da sud/sud-est
Temperature 9°C
Umidità 87%
Pressione 1016 hPa
Visibilità 10 km o più
nessuna nube inferiore a 1500 m e nessun cumulonembo

METAR: LFMH 310030Z AUTO 16002KT CAVOK 09/07 Q1016

Ora: 03:08 (01:08 UTC)


TAF: mancante

Osservazioni e previsioni meteorologiche di più di 4000 aeroporti (messaggi METAR e TAF).

Le stazioni disponibili sono rappresentate dai dischi gialli e rossi sulla carta.

Puntare il mouse per vedere il nome della stazione.

Clicca sopra per visualizzare le osservazioni e previsioni meteorologiche.

Per cambiare la mappa : fare clic sui pulsanti verdi con una croce nera per ingrandire, il pulsante verde con un trattino per diminuire, o sulla freccia verde per le mappe adiacenti.


METAR-TAF: